createdAt,value
2019-05-21T00:03:16.941Z,15.80
2019-05-21T00:08:19.447Z,15.80
2019-05-21T00:13:22.374Z,15.90
2019-05-21T00:18:24.824Z,15.90
2019-05-21T00:23:27.292Z,15.90
2019-05-21T00:28:39.941Z,16.00
2019-05-21T00:34:18.795Z,16.00
2019-05-21T00:39:57.535Z,15.90
2019-05-21T00:45:00.141Z,15.80
2019-05-21T00:50:03.231Z,15.90
2019-05-21T00:55:07.910Z,15.90
2019-05-21T01:00:11.010Z,15.90
2019-05-21T01:05:13.919Z,16.00
2019-05-21T01:10:16.307Z,16.00
2019-05-21T01:15:18.723Z,16.00
2019-05-21T01:20:21.232Z,15.90
2019-05-21T01:25:23.743Z,15.90
2019-05-21T01:30:25.999Z,15.90
2019-05-21T01:35:28.303Z,15.90
2019-05-21T01:40:30.652Z,15.90
2019-05-21T01:45:33.092Z,15.90
2019-05-21T01:50:35.453Z,15.90
2019-05-21T01:55:37.803Z,15.90
2019-05-21T02:00:40.203Z,15.90
2019-05-21T02:05:42.623Z,15.90
2019-05-21T02:10:44.939Z,16.00
2019-05-21T02:15:47.294Z,16.00
2019-05-21T02:20:49.564Z,15.90
2019-05-21T02:25:51.966Z,15.90
2019-05-21T02:30:56.519Z,15.80
2019-05-21T02:35:58.555Z,15.80
2019-05-21T02:41:01.342Z,15.80
2019-05-21T02:46:03.718Z,15.80
2019-05-21T02:51:06.188Z,15.80
2019-05-21T02:56:08.582Z,15.80
2019-05-21T03:01:40.207Z,15.80
2019-05-21T03:06:42.479Z,15.80
2019-05-21T03:11:45.143Z,15.90
2019-05-21T03:16:47.537Z,15.90
2019-05-21T03:21:49.896Z,15.90
2019-05-21T03:26:52.293Z,16.00
2019-05-21T03:31:54.725Z,16.00
2019-05-21T03:36:57.086Z,16.00
2019-05-21T03:41:59.376Z,15.60
2019-05-21T03:47:01.747Z,16.00
2019-05-21T03:52:04.139Z,15.90
2019-05-21T03:57:07.705Z,15.80
2019-05-21T04:02:10.153Z,15.60
2019-05-21T04:07:12.654Z,15.60
2019-05-21T04:12:15.314Z,15.50
2019-05-21T04:17:46.276Z,15.50
2019-05-21T04:22:54.803Z,15.50
2019-05-21T04:27:58.146Z,15.50
2019-05-21T04:33:02.088Z,15.60
2019-05-21T04:38:04.498Z,15.60
2019-05-21T04:43:06.786Z,15.50
2019-05-21T04:48:09.153Z,15.50
2019-05-21T04:53:11.512Z,15.50
2019-05-21T04:58:13.919Z,15.50
2019-05-21T05:03:16.196Z,15.50
2019-05-21T05:08:18.567Z,15.40
2019-05-21T05:13:20.956Z,15.50
2019-05-21T05:18:23.403Z,15.50
2019-05-21T05:23:25.733Z,15.60
2019-05-21T05:28:28.119Z,15.60
2019-05-21T05:33:31.543Z,15.50
2019-05-21T05:38:34.011Z,15.50
2019-05-21T05:43:36.483Z,15.50
2019-05-21T05:48:45.768Z,15.60
2019-05-21T05:53:57.535Z,15.60
2019-05-21T05:59:00.091Z,15.60
2019-05-21T06:04:02.468Z,15.60
2019-05-21T06:09:05.516Z,15.50
2019-05-21T06:14:07.818Z,15.50
2019-05-21T06:19:10.203Z,15.40
2019-05-21T06:24:13.793Z,15.40
2019-05-21T06:29:16.227Z,15.40
2019-05-21T06:34:18.623Z,15.40
2019-05-21T06:39:21.010Z,15.40
2019-05-21T06:44:23.467Z,15.40
2019-05-21T06:49:25.987Z,15.40
2019-05-21T06:54:28.436Z,15.60
2019-05-21T06:59:30.863Z,15.60
2019-05-21T07:04:33.154Z,15.60
2019-05-21T07:09:35.633Z,15.60
2019-05-21T07:14:38.042Z,15.50
2019-05-21T07:19:40.410Z,15.50
2019-05-21T07:24:42.843Z,15.40
2019-05-21T07:29:45.234Z,15.50
2019-05-21T07:34:47.535Z,15.50
2019-05-21T07:39:49.886Z,15.60
2019-05-21T07:44:52.171Z,15.60
2019-05-21T07:49:54.454Z,15.70
2019-05-21T07:54:56.747Z,15.60
2019-05-21T07:59:59.115Z,15.50
2019-05-21T08:05:02.306Z,15.60
2019-05-21T08:10:07.169Z,15.50
2019-05-21T08:15:10.957Z,15.60
2019-05-21T08:20:14.511Z,15.60
2019-05-21T08:25:16.975Z,15.60
2019-05-21T08:30:19.563Z,15.70
2019-05-21T08:35:22.251Z,15.60
2019-05-21T08:40:24.759Z,15.80
2019-05-21T08:45:27.153Z,16.00
2019-05-21T08:50:29.719Z,16.40
2019-05-21T08:55:32.136Z,16.70
2019-05-21T09:00:34.781Z,16.80
2019-05-21T09:05:37.306Z,16.70
2019-05-21T09:10:41.182Z,16.60
2019-05-21T09:15:43.712Z,16.70
2019-05-21T09:20:46.656Z,16.80
2019-05-21T09:25:49.662Z,16.90
2019-05-21T09:30:52.487Z,17.10
2019-05-21T09:35:55.070Z,17.20
2019-05-21T09:40:57.426Z,17.30
2019-05-21T09:45:59.817Z,17.40
2019-05-21T09:51:02.206Z,17.30
2019-05-21T09:56:23.675Z,17.50
2019-05-21T10:01:48.045Z,17.70
2019-05-21T10:06:50.243Z,18.10
2019-05-21T10:11:52.671Z,18.50
2019-05-21T10:16:55.412Z,19.00
2019-05-21T10:21:58.296Z,19.40
2019-05-21T10:27:03.418Z,19.60
2019-05-21T10:32:05.219Z,19.20
2019-05-21T10:37:08.768Z,18.90
2019-05-21T10:42:11.087Z,18.70
2019-05-21T10:47:16.190Z,19.10
2019-05-21T10:52:18.541Z,19.30
2019-05-21T10:57:20.963Z,19.00
2019-05-21T11:02:33.355Z,19.20
2019-05-21T11:07:35.744Z,19.30
2019-05-21T11:12:38.201Z,19.40
2019-05-21T11:17:58.932Z,19.60
2019-05-21T11:22:44.870Z,19.60
2019-05-21T11:27:47.275Z,19.90
2019-05-21T11:32:49.660Z,20.10
2019-05-21T11:37:52.102Z,20.10
2019-05-21T11:42:54.692Z,20.00
2019-05-21T11:47:57.181Z,19.90
2019-05-21T11:52:59.639Z,20.30
2019-05-21T11:58:01.986Z,20.60
2019-05-21T12:03:04.606Z,20.90
2019-05-21T12:08:07.173Z,21.10
2019-05-21T12:13:09.551Z,20.80
2019-05-21T12:18:11.980Z,20.50
2019-05-21T12:23:14.355Z,20.50
2019-05-21T12:28:17.684Z,20.30
2019-05-21T12:33:20.191Z,20.40
2019-05-21T12:38:23.226Z,20.20
2019-05-21T12:43:25.653Z,20.00
2019-05-21T12:48:28.321Z,19.70
2019-05-21T12:53:30.837Z,19.60
2019-05-21T12:58:33.280Z,19.40
2019-05-21T13:03:35.667Z,19.30
2019-05-21T13:08:39.162Z,19.40
2019-05-21T13:13:41.747Z,19.60
2019-05-21T13:18:44.127Z,19.40
2019-05-21T13:23:46.619Z,19.00
2019-05-21T13:28:49.080Z,18.80
2019-05-21T13:33:51.579Z,18.80
2019-05-21T13:38:53.996Z,19.30
2019-05-21T13:43:56.488Z,20.30
2019-05-21T13:48:59.263Z,20.70
2019-05-21T13:54:01.691Z,21.00
2019-05-21T13:59:04.271Z,20.60
2019-05-21T14:04:07.038Z,20.10
2019-05-21T14:09:09.685Z,19.90
2019-05-21T14:14:12.118Z,19.70
2019-05-21T14:19:14.579Z,19.60
2019-05-21T14:24:17.111Z,19.60
2019-05-21T14:29:19.588Z,19.50
2019-05-21T14:34:22.051Z,19.70
2019-05-21T14:39:24.741Z,19.70
2019-05-21T14:44:27.151Z,19.50
2019-05-21T14:49:29.530Z,19.20
2019-05-21T14:54:31.954Z,19.00
2019-05-21T14:59:34.455Z,19.10
2019-05-21T15:04:37.003Z,19.10
2019-05-21T15:09:39.623Z,19.00
2019-05-21T15:14:42.016Z,19.50
2019-05-21T15:19:46.772Z,20.70
2019-05-21T15:24:49.179Z,22.40
2019-05-21T15:29:51.560Z,21.50
2019-05-21T15:34:55.094Z,21.80
2019-05-21T15:39:57.603Z,21.80
2019-05-21T15:44:59.983Z,21.10
2019-05-21T15:50:02.716Z,20.30
2019-05-21T15:55:07.363Z,19.90
2019-05-21T16:00:10.539Z,19.90
2019-05-21T16:05:13.055Z,20.00
2019-05-21T16:10:15.603Z,19.50
2019-05-21T16:15:17.949Z,19.30
2019-05-21T16:20:20.337Z,19.50
2019-05-21T16:25:22.809Z,19.80
2019-05-21T16:30:25.461Z,19.70
2019-05-21T16:35:29.403Z,19.40
2019-05-21T16:40:32.130Z,19.10
2019-05-21T16:45:34.611Z,18.80
2019-05-21T16:50:36.975Z,18.70
2019-05-21T16:55:40.187Z,18.50
2019-05-21T17:00:43.079Z,18.50
2019-05-21T17:05:45.358Z,18.40
2019-05-21T17:10:47.738Z,18.30
2019-05-21T17:15:50.216Z,18.30
2019-05-21T17:20:52.607Z,18.40
2019-05-21T17:25:55.068Z,18.30
2019-05-21T17:30:57.547Z,18.30
2019-05-21T17:35:59.818Z,18.20
2019-05-21T17:41:02.486Z,18.20
2019-05-21T17:46:04.877Z,18.10
2019-05-21T17:51:09.008Z,18.00
2019-05-21T17:56:11.654Z,17.90
2019-05-21T18:01:15.727Z,17.80
2019-05-21T18:06:18.547Z,17.80
2019-05-21T18:11:21.224Z,17.70
2019-05-21T18:16:24.804Z,17.60
2019-05-21T18:21:27.205Z,17.50
2019-05-21T18:26:29.649Z,17.40
2019-05-21T18:31:32.187Z,17.20
2019-05-21T18:36:34.867Z,17.10
2019-05-21T18:41:37.299Z,17.00
2019-05-21T18:46:39.742Z,16.80
2019-05-21T18:51:42.152Z,16.80
2019-05-21T18:56:44.779Z,16.70
2019-05-21T19:01:47.280Z,16.60
2019-05-21T19:06:50.043Z,16.60
2019-05-21T19:11:52.520Z,16.60
2019-05-21T19:16:55.009Z,16.60
2019-05-21T19:21:57.448Z,16.60
2019-05-21T19:26:59.900Z,16.70
2019-05-21T19:32:02.311Z,16.60
2019-05-21T19:37:04.877Z,16.60
2019-05-21T19:42:07.468Z,16.50
2019-05-21T19:47:10.016Z,16.40
2019-05-21T19:52:12.743Z,16.30
2019-05-21T19:57:16.206Z,16.30
2019-05-21T20:02:18.911Z,16.20
2019-05-21T20:07:21.679Z,16.10
2019-05-21T20:12:26.246Z,16.10
2019-05-21T20:17:29.832Z,16.00
2019-05-21T20:22:32.572Z,16.00
2019-05-21T20:27:35.731Z,16.00
2019-05-21T20:32:39.595Z,16.00
2019-05-21T20:37:42.291Z,16.00
2019-05-21T20:42:45.783Z,16.00
2019-05-21T20:47:50.017Z,16.00
2019-05-21T20:52:53.301Z,16.00
2019-05-21T20:57:55.601Z,16.00
2019-05-21T21:03:00.302Z,16.10
2019-05-21T21:08:04.383Z,16.00
2019-05-21T21:13:08.311Z,16.00
2019-05-21T21:18:11.627Z,16.10
2019-05-21T21:23:16.335Z,16.10
2019-05-21T21:28:18.715Z,16.10
2019-05-21T21:33:21.205Z,16.10
2019-05-21T21:38:27.195Z,16.10
2019-05-21T21:43:30.107Z,16.00
2019-05-21T21:48:32.484Z,16.00
2019-05-21T21:53:35.680Z,15.90
2019-05-21T21:58:38.043Z,15.80
2019-05-21T22:03:42.745Z,15.70
2019-05-21T22:08:46.195Z,15.70
2019-05-21T22:13:49.514Z,15.70
2019-05-21T22:18:52.590Z,15.70
2019-05-21T22:23:55.691Z,15.70
2019-05-21T22:28:58.805Z,15.70
2019-05-21T22:34:01.235Z,15.70
2019-05-21T22:39:08.391Z,15.70
2019-05-21T22:44:10.842Z,15.70
2019-05-21T22:49:13.239Z,15.70
2019-05-21T22:54:15.685Z,15.70
2019-05-21T22:59:18.859Z,15.70
2019-05-21T23:04:21.581Z,15.70
2019-05-21T23:09:26.303Z,15.60
2019-05-21T23:14:28.583Z,15.60
2019-05-21T23:19:32.444Z,15.60
2019-05-21T23:24:42.959Z,15.60
2019-05-21T23:29:45.643Z,15.60
2019-05-21T23:34:48.703Z,15.70
2019-05-21T23:39:52.368Z,15.70
2019-05-21T23:44:54.763Z,15.70
2019-05-21T23:49:57.333Z,15.70
2019-05-21T23:55:00.712Z,15.60
